Data for 01/07/2011

Time Sea-Level Adjusted Pressure Absolute Pressure Temperature Relative Humidity Dew Point   
(mb) (inHg) (mb) (inHg) (C) (F) (%) (C) (F)
00:05 1020 30.12 850 25.1 3.1 37.6 73 -1.3 29.6
00:10 1020 30.12 850 25.1 3.1 37.6 73 -1.3 29.6
00:15 1021 30.15 850 25.1 2.9 37.2 76 -1 30.2
00:20 1021 30.15 850 25.1 2.8 37 74 -1.3 29.6
00:25 1021 30.15 850 25.1 3 37.4 73 -1.4 29.5
00:30 1021 30.15 850 25.1 3.1 37.6 73 -1.4 29.6
00:35 1020 30.12 850 25.1 3.2 37.7 72 -1.4 29.5
00:40 1020 30.12 850 25.1 3.4 38 72 -1.2 29.9
00:45 1020 30.12 850 25.1 3.1 37.6 73 -1.4 29.6
00:50 1020 30.12 850 25.1 3.1 37.6 74 -1.1 30
00:55 1021 30.15 850 25.1 3.3 37.9 70 -1.7 28.9
01:00 1021 30.15 850 25.1 3.8 38.8 68 -1.6 29.1
01:05 1021 30.15 850 25.1 3.9 39.1 68 -1.4 29.4
01:10 1021 30.15 850 25.1 4 39.2 68 -1.4 29.5
01:15 1021 30.15 850 25.1 3.9 39.1 68 -1.5 29.4
01:20 1021 30.15 850 25.1 3.8 38.9 68 -1.5 29.3
01:25 1021 30.15 850 25.1 3.6 38.5 70 -1.4 29.5
01:30 1021 30.15 850 25.1 3.4 38.2 70 -1.5 29.3
01:35 1021 30.15 850 25.1 3.3 38 71 -1.4 29.6
01:40 1021 30.15 850 25.1 3.2 37.8 71 -1.5 29.3
01:45 1021 30.15 850 25.1 3.3 37.9 69 -1.8 28.7
01:50 1020 30.12 850 25.1 3.4 38 71 -1.5 29.3
01:55 1020 30.12 850 25.1 3.2 37.8 71 -1.6 29.2
02:00 1020 30.12 850 25.1 3.1 37.6 71 -1.6 29.2
02:05 1020 30.12 850 25.1 3.1 37.5 72 -1.5 29.3
02:10 1020 30.12 849 25.07 3 37.3 72 -1.6 29.1
02:15 1020 30.12 849 25.07 2.9 37.2 70 -2 28.5
02:20 1020 30.12 849 25.07 2.9 37.3 72 -1.6 29
02:25 1020 30.12 849 25.07 2.9 37.2 71 -1.8 28.8
02:30 1020 30.12 849 25.07 2.9 37.2 71 -1.8 28.8
02:35 1020 30.12 849 25.07 2.9 37.2 71 -1.8 28.7
02:40 1020 30.12 849 25.07 3 37.3 70 -2 28.3
02:45 1020 30.12 849 25.07 3.1 37.6 70 -1.9 28.5
02:50 1020 30.12 849 25.07 3.2 37.7 69 -1.9 28.5
02:55 1020 30.12 849 25.07 3.3 37.9 70 -1.8 28.8
03:00 1020 30.12 849 25.07 3.2 37.8 70 -1.7 29
03:05 1020 30.12 849 25.07 3.2 37.7 70 -1.7 29
03:10 1020 30.12 849 25.07 3.2 37.8 70 -1.7 28.9
03:15 1020 30.12 849 25.07 3.3 37.9 69 -1.9 28.7
03:20 1020 30.12 849 25.07 3.4 38.1 69 -1.7 28.9
03:25 1020 30.12 849 25.07 3.4 38 69 -1.7 28.9
03:30 1020 30.12 849 25.07 3.2 37.7 70 -1.7 29
03:35 1020 30.12 849 25.07 3 37.4 71 -1.7 28.9
03:40 1020 30.12 849 25.07 3 37.4 72 -1.5 29.2
03:45 1020 30.12 849 25.07 2.9 37.1 73 -1.4 29.4
03:50 1020 30.12 849 25.07 2.6 36.6 75 -1.4 29.5
03:55 1020 30.12 849 25.07 2.3 36.1 75 -1.7 29
04:00 1020 30.12 849 25.07 2.3 36.1 75 -1.7 28.9
04:05 1020 30.12 849 25.07 2.3 36.2 76 -1.5 29.3
04:10 1020 30.12 849 25.07 2.4 36.3 73 -2 28.4
04:15 1020 30.12 849 25.07 2.6 36.7 74 -1.5 29.3
04:20 1020 30.12 849 25.07 2.4 36.3 76 -1.5 29.3
04:25 1020 30.12 849 25.07 2.3 36.1 75 -1.6 29.1
04:30 1020 30.12 849 25.07 2.3 36.1 74 -1.9 28.6
04:35 1020 30.12 849 25.07 2.4 36.3 76 -1.4 29.6
04:40 1019 30.09 849 25.07 2.4 36.2 74 -1.7 28.9
04:45 1019 30.09 849 25.07 2.6 36.6 74 -1.6 29.1
04:50 1019 30.09 849 25.07 2.6 36.7 74 -1.6 29
04:55 1020 30.12 849 25.07 2.7 36.8 73 -1.6 29.1
05:00 1019 30.09 849 25.07 2.5 36.6 75 -1.4 29.4
05:05 1019 30.09 849 25.07 2.3 36.1 76 -1.5 29.4
05:10 1019 30.09 849 25.07 2.1 35.8 77 -1.5 29.2
05:15 1019 30.09 849 25.07 1.9 35.4 77 -1.6 29.1
05:20 1019 30.09 849 25.07 1.8 35.2 76 -2 28.4
05:25 1019 30.09 849 25.07 1.8 35.3 76 -1.9 28.5
05:30 1019 30.09 849 25.07 1.8 35.2 77 -1.9 28.6
05:35 1020 30.12 849 25.07 1.5 34.8 78 -1.9 28.5
05:40 1020 30.12 849 25.07 1.4 34.5 78 -2 28.5
05:45 1019 30.09 849 25.07 1.3 34.4 79 -1.9 28.6
05:50 1019 30.09 848 25.04 1.2 34.2 79 -2 28.4
05:55 1019 30.09 848 25.04 1.2 34.2 79 -2 28.3
06:00 1019 30.09 849 25.07 1.3 34.3 79 -2 28.4
06:05 1019 30.09 849 25.07 1.2 34.2 80 -1.9 28.6
06:10 1019 30.09 849 25.07 1.2 34.2 80 -1.9 28.7
06:15 1019 30.09 849 25.07 1 33.9 82 -1.6 29
06:20 1019 30.09 849 25.07 0.9 33.7 81 -1.9 28.5
06:25 1019 30.09 848 25.04 1 33.8 80 -2 28.4
06:30 1019 30.09 848 25.04 1.1 33.9 81 -1.9 28.6
06:35 1019 30.09 848 25.04 1.1 34 80 -2 28.4
06:40 1019 30.09 848 25.04 1.1 34 81 -1.8 28.7
06:45 1019 30.09 848 25.04 1 33.8 80 -2.1 28.3
06:50 1019 30.09 848 25.04 0.9 33.7 79 -2.2 28
06:55 1019 30.09 848 25.04 1 33.8 79 -2.3 27.8
07:00 1019 30.09 848 25.04 1.1 33.9 78 -2.3 27.9
07:05 1019 30.09 848 25.04 1.1 34 79 -2.1 28.2
07:10 1019 30.09 848 25.04 1 33.8 82 -1.7 28.9
07:15 1019 30.09 848 25.04 0.8 33.5 83 -1.7 29
07:20 1019 30.09 848 25.04 0.9 33.6 84 -1.6 29.2
07:25 1019 30.09 848 25.04 0.9 33.7 82 -1.8 28.8
07:30 1019 30.09 848 25.04 1 33.9 82 -1.7 29
07:35 1019 30.09 848 25.04 1 33.7 83 -1.7 29
07:40 1019 30.09 848 25.04 0.9 33.6 83 -1.7 29
07:45 1019 30.09 848 25.04 0.8 33.5 83 -1.7 29
07:50 1019 30.09 848 25.04 0.7 33.3 83 -1.8 28.7
07:55 1019 30.09 848 25.04 0.7 33.2 84 -1.8 28.8
08:00 1019 30.09 848 25.04 0.6 33.2 83 -1.9 28.6
08:05 1018 30.06 848 25.04 0.7 33.3 82 -2 28.3
08:10 1018 30.06 848 25.04 0.7 33.3 81 -2.1 28.2
08:15 1018 30.06 848 25.04 0.9 33.6 80 -2.3 27.9
08:20 1018 30.06 847 25.01 1.1 33.9 79 -2.3 27.9
08:25 1018 30.06 848 25.04 1.1 34.1 78 -2.2 28
08:30 1018 30.06 848 25.04 1.2 34.1 78 -2.2 28.1
08:35 1018 30.06 847 25.01 1.3 34.3 78 -2.2 28.1
08:40 1018 30.06 847 25.01 1.5 34.8 76 -2.3 27.9
08:45 1018 30.06 847 25.01 1.7 35 77 -1.9 28.7
08:50 1018 30.06 847 25.01 1.4 34.6 79 -1.8 28.8
08:55 1018 30.06 847 25.01 1.3 34.3 79 -2 28.5
09:00 1018 30.06 847 25.01 1.3 34.3 79 -1.9 28.5
09:05 1018 30.06 847 25.01 1.2 34.2 79 -2 28.4
09:10 1018 30.06 847 25.01 1.2 34.2 79 -2 28.4
09:15 1018 30.06 847 25.01 1.3 34.4 80 -1.7 28.9
09:20 1018 30.06 847 25.01 1.3 34.3 81 -1.5 29.2
09:25 1018 30.06 847 25.01 1.1 33.9 84 -1.4 29.5
09:30 1018 30.06 847 25.01 1.2 34.1 82 -1.5 29.3
09:35 1018 30.06 847 25.01 1.4 34.5 82 -1.4 29.5
09:40 1018 30.06 847 25.01 1.5 34.6 82 -1.4 29.6
09:45 1018 30.06 847 25.01 1.7 35 80 -1.4 29.5
09:50 1018 30.06 847 25.01 1.8 35.3 79 -1.5 29.4
09:55 1018 30.06 847 25.01 1.9 35.3 80 -1.3 29.7
10:00 1018 30.06 847 25.01 2.1 35.8 78 -1.3 29.7
10:05 1018 30.06 847 25.01 2.5 36.5 77 -1.1 30.1
10:10 1018 30.06 847 25.01 2.9 37.3 74 -1.2 29.8
10:15 1018 30.06 847 25.01 3.4 38.1 71 -1.3 29.6
10:20 1018 30.06 847 25.01 3.6 38.4 70 -1.3 29.6
10:25 1018 30.06 847 25.01 3.6 38.4 70 -1.4 29.5
10:30 1018 30.06 847 25.01 3.6 38.4 70 -1.4 29.4
10:35 1018 30.06 847 25.01 3.7 38.7 70 -1.3 29.7
10:40 1018 30.06 847 25.01 3.9 39 69 -1.4 29.5
10:45 1017 30.03 847 25.01 4 39.2 67 -1.5 29.3
10:50 1017 30.03 847 25.01 4.1 39.4 66 -1.6 29.1
10:55 1017 30.03 847 25.01 4.2 39.6 65 -1.7 28.9
11:00 1017 30.03 846 24.98 4.2 39.6 66 -1.6 29.2
11:05 1017 30.03 846 24.98 4.3 39.8 66 -1.4 29.5
11:10 1017 30.03 846 24.98 4.3 39.8 68 -1.1 29.9
11:15 1017 30.03 846 24.98 4.2 39.6 68 -1.1 30
11:20 1017 30.03 846 24.98 4.2 39.6 67 -1.3 29.7
11:25 1017 30.03 846 24.98 4.1 39.4 69 -1 30.2
11:30 1017 30.03 846 24.98 4 39.2 70 -0.9 30.4
11:35 1017 30.03 846 24.98 4.2 39.5 70 -0.9 30.4
11:40 1016 30 846 24.98 3.8 38.9 73 -0.6 31
11:45 1016 30 846 24.98 3.3 37.9 73 -1 30.2
11:50 1016 30 846 24.98 3.8 38.9 71 -1 30.2
11:55 1016 30 845 24.95 4.4 40 68 -0.9 30.3
12:00 1016 30 845 24.95 4.6 40.3 67 -0.9 30.4
12:05 1016 30 845 24.95 5.2 41.4 65 -0.8 30.5
12:10 1016 30 845 24.95 5.3 41.6 65 -0.7 30.7
12:15 1016 30 845 24.95 4.7 40.4 67 -0.9 30.3
12:20 1016 30 845 24.95 4.5 40.1 67 -1 30.1
12:25 1016 30 845 24.95 4.3 39.7 68 -1.2 29.9
12:30 1015 29.97 845 24.95 4.1 39.3 69 -1.1 30
12:35 1015 29.97 844 24.92 4.3 39.7 66 -1.5 29.2
12:40 1015 29.97 844 24.92 4.4 39.9 66 -1.4 29.6
12:45 1015 29.97 844 24.92 4.6 40.2 66 -1.2 29.8
12:50 1015 29.97 844 24.92 4.4 39.9 66 -1.4 29.5
12:55 1015 29.97 844 24.92 4.2 39.5 67 -1.4 29.5
13:00 1015 29.97 844 24.92 4.2 39.6 66 -1.5 29.4
13:05 1015 29.97 844 24.92 4.3 39.7 68 -1.2 29.8
13:10 1015 29.97 844 24.92 4 39.1 71 -0.8 30.5
13:15 1015 29.97 844 24.92 4 39.1 70 -1 30.3
13:20 1015 29.97 844 24.92 3.9 39.1 72 -0.7 30.8
13:25 1015 29.97 844 24.92 3.8 38.8 73 -0.6 31
13:30 1015 29.97 844 24.92 3.6 38.4 73 -0.9 30.4
13:35 1014 29.94 844 24.92 3.4 38.2 72 -1.1 30
13:40 1014 29.94 843 24.89 3.6 38.4 70 -1.4 29.5
13:45 1014 29.94 843 24.89 3.8 38.9 69 -1.4 29.5
13:50 1014 29.94 843 24.89 4.1 39.3 66 -1.7 28.9
13:55 1014 29.94 843 24.89 4 39.3 66 -1.7 29
14:00 1014 29.94 843 24.89 4 39.1 70 -1.1 30.1
14:05 1014 29.94 843 24.89 3.8 38.8 71 -1 30.1
14:10 1014 29.94 843 24.89 3.9 39 69 -1.2 29.8
14:15 1014 29.94 843 24.89 3.9 39 73 -0.6 31
14:20 1014 29.94 843 24.89 3.9 39.1 72 -0.6 30.9
14:25 1014 29.94 843 24.89 4.1 39.5 71 -0.6 30.9
14:30 1014 29.94 843 24.89 4.3 39.7 70 -0.7 30.7
14:35 1014 29.94 843 24.89 4.3 39.7 70 -0.7 30.7
14:40 1014 29.94 843 24.89 4.1 39.5 69 -1 30.1
14:45 1014 29.94 843 24.89 4.1 39.3 73 -0.3 31.5
14:50 1014 29.94 843 24.89 3.6 38.5 75 -0.4 31.2
14:55 1014 29.94 843 24.89 3.4 38.1 75 -0.6 30.9
15:00 1014 29.94 843 24.89 3.2 37.7 76 -0.7 30.7
15:05 1014 29.94 843 24.89 3 37.4 74 -1.2 29.9
15:10 1014 29.94 843 24.89 3.5 38.2 74 -0.8 30.5
15:15 1014 29.94 843 24.89 3.9 39 71 -1 30.2
15:20 1014 29.94 843 24.89 4 39.2 71 -0.8 30.6
15:25 1014 29.94 843 24.89 4.2 39.5 70 -0.8 30.6
15:30 1013 29.91 843 24.89 4.2 39.6 71 -0.5 31
15:35 1014 29.94 843 24.89 4.1 39.3 72 -0.6 30.9
15:40 1014 29.94 843 24.89 4 39.3 72 -0.6 30.9
15:45 1014 29.94 843 24.89 4.1 39.4 72 -0.5 31.2
15:50 1014 29.94 843 24.89 4 39.3 72 -0.5 31.1
15:55 1013 29.91 843 24.89 4 39.2 73 -0.4 31.2
16:00 1013 29.91 843 24.89 3.9 39 73 -0.4 31.3
16:05 1013 29.91 843 24.89 3.7 38.7 72 -0.8 30.6
16:10 1013 29.91 843 24.89 3.7 38.6 72 -0.9 30.4
16:15 1013 29.91 842 24.86 3.6 38.5 73 -0.8 30.5
16:20 1013 29.91 843 24.89 3.3 38 77 -0.4 31.4
16:25 1013 29.91 842 24.86 2.9 37.2 77 -0.7 30.7
16:30 1013 29.91 842 24.86 2.7 36.9 77 -1 30.2
16:35 1013 29.91 842 24.86 2.8 37 77 -0.9 30.4
16:40 1013 29.91 842 24.86 2.9 37.3 76 -0.9 30.3
16:45 1013 29.91 842 24.86 3 37.3 76 -0.9 30.5
16:50 1013 29.91 842 24.86 2.9 37.3 76 -0.9 30.5
16:55 1013 29.91 842 24.86 2.8 37.1 78 -0.6 30.8
17:00 1013 29.91 842 24.86 2.6 36.7 80 -0.5 31.1
17:05 1013 29.91 842 24.86 2.4 36.4 80 -0.7 30.8
17:10 1013 29.91 842 24.86 2.5 36.5 80 -0.6 30.9
17:15 1013 29.91 842 24.86 2.6 36.6 79 -0.7 30.8
17:20 1013 29.91 842 24.86 2.6 36.7 79 -0.6 30.9
17:25 1013 29.91 842 24.86 2.5 36.5 81 -0.4 31.2
17:30 1013 29.91 842 24.86 2.2 36 82 -0.6 31
17:35 1013 29.91 842 24.86 2.3 36.2 81 -0.6 31
17:40 1013 29.91 842 24.86 2.4 36.3 81 -0.5 31
17:45 1013 29.91 842 24.86 2.4 36.3 81 -0.5 31
17:50 1013 29.91 842 24.86 2.4 36.3 81 -0.5 31.1
17:55 1013 29.91 842 24.86 2.2 35.9 83 -0.4 31.2
18:00 1012 29.88 842 24.86 1.9 35.5 84 -0.5 31.1
18:05 1012 29.88 842 24.86 1.8 35.2 85 -0.6 31
18:10 1012 29.88 842 24.86 1.8 35.2 85 -0.5 31.1
18:15 1012 29.88 842 24.86 1.8 35.3 84 -0.6 31
18:20 1012 29.88 842 24.86 1.9 35.5 84 -0.5 31.1
18:25 1012 29.88 842 24.86 1.9 35.4 84 -0.5 31.1
18:30 1012 29.88 842 24.86 1.9 35.4 85 -0.4 31.2
18:35 1012 29.88 841 24.83 1.9 35.5 84 -0.5 31
18:40 1012 29.88 841 24.83 1.8 35.3 85 -0.4 31.3
18:45 1012 29.88 841 24.83 1.9 35.4 84 -0.5 31.1
18:50 1012 29.88 842 24.86 2.1 35.8 83 -0.5 31.1
18:55 1012 29.88 842 24.86 2.3 36.1 82 -0.5 31.1
19:00 1012 29.88 842 24.86 2.3 36.1 81 -0.6 30.9
19:05 1012 29.88 842 24.86 2.2 36 81 -0.8 30.6
19:10 1012 29.88 842 24.86 2.1 35.8 82 -0.6 31
19:15 1012 29.88 842 24.86 2.2 35.9 82 -0.7 30.8
19:20 1012 29.88 841 24.83 2.1 35.8 82 -0.6 30.8
19:25 1012 29.88 842 24.86 2 35.6 82 -0.8 30.5
19:30 1012 29.88 841 24.83 2.1 35.8 81 -0.9 30.4
19:35 1012 29.88 841 24.83 2.1 35.7 80 -1.1 30.1
19:40 1012 29.88 842 24.86 2.2 36 80 -0.9 30.4
19:45 1012 29.88 841 24.83 1.8 35.2 83 -0.9 30.5
19:50 1012 29.88 841 24.83 1.9 35.4 80 -1.1 30
19:55 1012 29.88 841 24.83 2.1 35.8 79 -1.1 30
20:00 1012 29.88 841 24.83 2.1 35.8 79 -1.2 29.9
20:05 1012 29.88 841 24.83 2 35.7 80 -1.1 30
20:10 1012 29.88 841 24.83 2.1 35.8 79 -1.2 29.8
20:15 1012 29.88 841 24.83 2.3 36.1 78 -1.1 29.9
20:20 1012 29.88 841 24.83 2.4 36.3 77 -1.2 29.8
20:25 1012 29.88 841 24.83 2.5 36.4 76 -1.4 29.5
20:30 1012 29.88 841 24.83 2.7 36.8 75 -1.3 29.6
20:35 1012 29.88 841 24.83 2.7 36.8 76 -1.2 29.8
20:40 1012 29.88 841 24.83 2.8 37 75 -1.2 29.8
20:45 1011 29.85 841 24.83 2.8 37.1 77 -0.8 30.5
20:50 1011 29.85 841 24.83 2.6 36.7 78 -0.9 30.3
20:55 1011 29.85 841 24.83 2.4 36.2 79 -0.8 30.5
21:00 1011 29.85 841 24.83 2.4 36.3 77 -1.3 29.7
21:05 1011 29.85 840 24.81 2.5 36.6 78 -0.9 30.4
21:10 1011 29.85 840 24.81 2.4 36.3 79 -0.9 30.3
21:15 1011 29.85 840 24.81 2.3 36.2 79 -1 30.3
21:20 1011 29.85 840 24.81 2.5 36.5 79 -0.8 30.5
21:25 1011 29.85 840 24.81 2.6 36.8 78 -0.8 30.5
21:30 1011 29.85 840 24.81 2.8 37 78 -0.6 30.9
21:35 1011 29.85 840 24.81 2.5 36.5 80 -0.6 30.9
21:40 1011 29.85 840 24.81 2.4 36.3 80 -0.7 30.8
21:45 1011 29.85 840 24.81 2.7 36.8 78 -0.7 30.7
21:50 1010 29.83 840 24.81 2.9 37.2 78 -0.6 30.9
21:55 1010 29.83 839 24.78 3.3 38 72 -1.2 29.9
22:00 1010 29.83 839 24.78 3.9 39 70 -1 30.2
22:05 1010 29.83 839 24.78 4.1 39.4 71 -0.6 30.9
22:10 1010 29.83 839 24.78 3.5 38.3 77 -0.2 31.7
22:15 1010 29.83 839 24.78 2.8 37 78 -0.7 30.8
22:20 1010 29.83 839 24.78 2.7 36.8 78 -0.7 30.7
22:25 1010 29.83 839 24.78 2.6 36.8 79 -0.7 30.7
22:30 1010 29.83 839 24.78 2.6 36.7 79 -0.6 30.8
22:35 1010 29.83 839 24.78 2.5 36.5 79 -0.7 30.7
22:40 1010 29.83 839 24.78 2.5 36.5 81 -0.5 31.1
22:45 1010 29.83 839 24.78 2.3 36.1 82 -0.5 31.2
22:50 1010 29.83 839 24.78 2.3 36.1 82 -0.6 31
22:55 1010 29.83 839 24.78 2.3 36.1 82 -0.5 31.1
23:00 1010 29.83 839 24.78 2.2 36 82 -0.5 31.1
23:05 1009 29.8 839 24.78 2.2 36 82 -0.6 30.9
23:10 1009 29.8 839 24.78 2.5 36.4 80 -0.6 30.8
23:15 1009 29.8 839 24.78 2.7 36.9 79 -0.6 31
23:20 1009 29.8 839 24.78 2.8 37.1 79 -0.5 31.1
23:25 1009 29.8 838 24.75 2.6 36.8 80 -0.4 31.2
23:30 1009 29.8 838 24.75 2.1 35.8 83 -0.5 31.1
23:35 1009 29.8 838 24.75 2.2 36 80 -0.9 30.4
23:40 1009 29.8 838 24.75 2.7 36.8 78 -0.8 30.5
23:45 1009 29.8 838 24.75 2.7 36.9 78 -0.7 30.7
23:50 1009 29.8 838 24.75 2.8 37 78 -0.7 30.8
23:55 1009 29.8 838 24.75 3.1 37.5 77 -0.6 31
24:00 1009 29.8 838 24.75 2.9 37.1 78 -0.7 30.8